createdAt,value
2022-12-14T00:05:01.852Z,12.50
2022-12-14T00:10:05.156Z,15.20
2022-12-14T00:15:07.507Z,10.00
2022-12-14T00:20:09.727Z,15.15
2022-12-14T00:25:11.950Z,11.15
2022-12-14T00:30:15.549Z,14.88
2022-12-14T00:35:18.289Z,10.07
2022-12-14T00:40:20.430Z,13.80
2022-12-14T00:45:22.598Z,14.20
2022-12-14T00:50:24.756Z,11.20
2022-12-14T00:55:26.898Z,11.95
2022-12-14T01:00:29.023Z,11.32
2022-12-14T01:05:30.865Z,17.05
2022-12-14T01:10:34.260Z,12.95
2022-12-14T01:15:38.454Z,12.73
2022-12-14T01:20:41.590Z,14.48
2022-12-14T01:25:45.529Z,14.00
2022-12-14T01:30:50.711Z,17.50
2022-12-14T01:35:52.893Z,13.93
2022-12-14T01:40:59.646Z,13.32
2022-12-14T01:46:03.004Z,12.63
2022-12-14T01:51:05.203Z,20.85
2022-12-14T01:56:11.065Z,15.30
2022-12-14T02:01:18.262Z,13.73
2022-12-14T02:06:36.424Z,14.77
2022-12-14T02:11:46.745Z,13.18
2022-12-14T02:16:51.308Z,17.20
2022-12-14T02:22:32.516Z,16.20
2022-12-14T02:28:03.831Z,14.90
2022-12-14T02:33:32.820Z,18.42
2022-12-14T02:38:41.747Z,16.80
2022-12-14T02:43:55.534Z,17.45
2022-12-14T02:49:29.464Z,16.30
2022-12-14T02:54:58.577Z,16.63
2022-12-14T03:00:04.450Z,19.25
2022-12-14T03:05:06.815Z,17.98
2022-12-14T03:10:09.169Z,16.95
2022-12-14T03:15:14.938Z,15.80
2022-12-14T03:20:22.344Z,18.70
2022-12-14T03:25:35.362Z,16.27
2022-12-14T03:30:59.961Z,15.93
2022-12-14T03:36:30.068Z,19.40
2022-12-14T03:41:40.592Z,18.13
2022-12-14T03:47:01.050Z,16.50
2022-12-14T03:52:03.261Z,19.92
2022-12-14T03:57:32.771Z,21.42
2022-12-14T04:02:42.702Z,17.73
2022-12-14T04:07:57.472Z,17.63
2022-12-14T04:13:23.864Z,18.88
2022-12-14T04:18:59.102Z,20.60
2022-12-14T04:24:32.710Z,20.67
2022-12-14T04:29:56.811Z,23.30
2022-12-14T04:35:07.099Z,20.08
2022-12-14T04:40:17.402Z,27.02
2022-12-14T04:45:24.989Z,19.60
2022-12-14T04:50:30.796Z,23.58
2022-12-14T04:55:49.102Z,24.83
2022-12-14T05:01:16.408Z,20.95
2022-12-14T05:06:30.927Z,20.65
2022-12-14T05:12:06.194Z,20.17
2022-12-14T05:17:09.566Z,20.10
2022-12-14T05:22:11.605Z,21.83
2022-12-14T05:27:14.007Z,18.77
2022-12-14T05:32:16.421Z,21.52
2022-12-14T05:37:18.715Z,21.42
2022-12-14T05:42:20.641Z,23.50
2022-12-14T05:47:22.925Z,22.88
2022-12-14T05:52:26.334Z,22.73
2022-12-14T05:57:28.415Z,23.13
2022-12-14T06:02:30.796Z,25.35
2022-12-14T06:07:32.771Z,23.35
2022-12-14T06:12:34.905Z,22.60
2022-12-14T06:17:37.701Z,24.88
2022-12-14T06:22:45.756Z,22.00
2022-12-14T06:27:54.640Z,21.33
2022-12-14T06:32:56.823Z,23.60
2022-12-14T06:38:00.364Z,22.85
2022-12-14T06:43:02.490Z,22.33
2022-12-14T06:48:12.905Z,22.30
2022-12-14T06:53:15.196Z,23.13
2022-12-14T06:58:17.310Z,20.42
2022-12-14T07:03:26.856Z,23.88
2022-12-14T07:08:30.354Z,25.70
2022-12-14T07:13:37.573Z,20.88
2022-12-14T07:18:45.306Z,24.08
2022-12-14T07:23:49.675Z,25.30
2022-12-14T07:28:52.531Z,25.38
2022-12-14T07:33:57.674Z,23.77
2022-12-14T07:39:00.640Z,22.27
2022-12-14T07:44:04.624Z,29.70
2022-12-14T07:49:16.486Z,24.00
2022-12-14T07:54:21.758Z,28.90
2022-12-14T07:59:24.218Z,28.10
2022-12-14T08:04:26.014Z,29.95
2022-12-14T08:09:28.235Z,28.45
2022-12-14T08:14:30.344Z,28.10
2022-12-14T08:19:32.667Z,26.75
2022-12-14T08:24:34.411Z,30.92
2022-12-14T08:29:36.567Z,25.38
2022-12-14T08:34:40.148Z,25.02
2022-12-14T08:39:42.146Z,31.67
2022-12-14T08:44:43.919Z,23.45
2022-12-14T08:49:46.166Z,26.27
2022-12-14T08:54:54.749Z,27.70
2022-12-14T09:00:04.348Z,27.85
2022-12-14T09:05:06.821Z,25.75
2022-12-14T09:10:08.766Z,30.45
2022-12-14T09:15:11.838Z,27.80
2022-12-14T09:20:14.212Z,31.33
2022-12-14T09:25:16.007Z,30.38
2022-12-14T09:30:23.188Z,34.75
2022-12-14T09:35:28.122Z,31.45
2022-12-14T09:40:32.981Z,30.60
2022-12-14T09:45:45.075Z,33.97
2022-12-14T09:50:49.774Z,28.88
2022-12-14T09:55:55.594Z,29.27
2022-12-14T10:01:24.915Z,35.78
2022-12-14T10:06:42.303Z,35.28
2022-12-14T10:12:02.368Z,31.65
2022-12-14T10:17:15.839Z,31.83
2022-12-14T10:22:23.018Z,31.23
2022-12-14T10:27:27.333Z,29.90
2022-12-14T10:32:39.375Z,31.65
2022-12-14T10:37:48.793Z,30.85
2022-12-14T10:43:11.130Z,36.42
2022-12-14T10:48:29.137Z,34.00
2022-12-14T10:53:41.226Z,32.95
2022-12-14T10:58:43.735Z,31.02
2022-12-14T11:03:49.454Z,31.27
2022-12-14T11:08:51.747Z,31.13
2022-12-14T11:14:06.378Z,37.20
2022-12-14T11:19:27.055Z,28.85
2022-12-14T11:24:29.415Z,33.28
2022-12-14T11:29:34.608Z,31.40
2022-12-14T11:34:42.303Z,32.83
2022-12-14T11:39:44.599Z,30.83
2022-12-14T11:44:48.055Z,35.28
2022-12-14T11:49:55.553Z,31.30
2022-12-14T11:54:57.335Z,38.65
2022-12-14T12:00:18.488Z,41.03
2022-12-14T12:05:23.544Z,46.47
2022-12-14T12:10:50.221Z,41.72
2022-12-14T12:16:03.711Z,49.63
2022-12-14T12:21:10.127Z,43.47
2022-12-14T12:26:32.131Z,40.28
2022-12-14T12:31:40.739Z,33.28
2022-12-14T12:37:17.099Z,38.55
2022-12-14T12:42:20.662Z,36.28
2022-12-14T12:47:48.408Z,51.08
2022-12-14T12:53:14.872Z,40.85
2022-12-14T12:58:22.478Z,32.15
2022-12-14T13:03:44.467Z,36.30
2022-12-14T13:08:49.942Z,33.00
2022-12-14T13:14:01.247Z,40.85
2022-12-14T13:19:50.411Z,40.50
2022-12-14T13:24:57.055Z,33.25
2022-12-14T13:30:20.717Z,40.08
2022-12-14T13:35:57.769Z,40.58
2022-12-14T13:41:14.679Z,42.65
2022-12-14T13:46:22.707Z,42.85
2022-12-14T13:51:24.914Z,37.83
2022-12-14T13:56:33.539Z,40.70
2022-12-14T14:01:48.219Z,38.35
2022-12-14T14:06:52.217Z,41.33
2022-12-14T14:12:21.551Z,45.90
2022-12-14T14:17:39.995Z,40.15
2022-12-14T14:23:13.519Z,39.03
2022-12-14T14:28:22.772Z,39.63
2022-12-14T14:33:47.747Z,39.75
2022-12-14T14:38:50.990Z,39.00
2022-12-14T14:44:03.510Z,41.60
2022-12-14T14:49:16.798Z,54.20
2022-12-14T14:54:56.583Z,54.13
2022-12-14T15:04:57.166Z,45.17
2022-12-14T15:10:22.530Z,44.33
2022-12-14T15:15:45.423Z,44.13
2022-12-14T15:20:57.640Z,41.42
2022-12-14T15:26:02.378Z,45.92
2022-12-14T15:31:08.969Z,49.55
2022-12-14T15:36:19.642Z,46.35
2022-12-14T15:41:23.564Z,63.80
2022-12-14T15:46:33.669Z,44.40
2022-12-14T15:51:42.838Z,52.35
2022-12-14T15:56:53.422Z,104.45
2022-12-14T16:02:44.016Z,51.60
2022-12-14T16:07:58.140Z,75.95
2022-12-14T16:13:09.162Z,59.45
2022-12-14T16:18:14.002Z,91.65
2022-12-14T16:23:16.143Z,73.80
2022-12-14T16:28:31.134Z,45.15
2022-12-14T16:33:38.547Z,55.75
2022-12-14T16:39:03.775Z,43.08
2022-12-14T16:44:09.375Z,43.95
2022-12-14T16:49:34.192Z,44.50
2022-12-14T16:54:37.968Z,43.83
2022-12-14T16:59:45.756Z,43.22
2022-12-14T17:04:48.775Z,53.20
2022-12-14T17:09:51.002Z,42.05
2022-12-14T17:14:53.951Z,37.88
2022-12-14T17:19:56.437Z,33.53
2022-12-14T17:24:59.416Z,32.70
2022-12-14T17:30:05.756Z,39.70
2022-12-14T17:35:11.243Z,33.53
2022-12-14T17:40:15.738Z,36.13
2022-12-14T17:45:23.711Z,39.60
2022-12-14T17:50:26.229Z,39.60
2022-12-14T17:55:29.279Z,43.70
2022-12-14T18:00:50.370Z,40.63
2022-12-14T18:05:52.835Z,35.08
2022-12-14T18:11:01.697Z,61.88
2022-12-14T18:16:04.082Z,44.28
2022-12-14T18:21:32.227Z,44.55
2022-12-14T18:26:34.465Z,48.97
2022-12-14T18:31:38.161Z,50.90
2022-12-14T18:36:40.437Z,37.72
2022-12-14T18:41:42.595Z,35.45
2022-12-14T18:46:49.254Z,37.00
2022-12-14T18:51:51.685Z,47.13
2022-12-14T18:56:53.893Z,38.55
2022-12-14T19:01:56.099Z,38.95
2022-12-14T19:06:58.243Z,38.50
2022-12-14T19:12:00.339Z,42.05
2022-12-14T19:17:02.464Z,35.72
2022-12-14T19:22:04.679Z,32.00
2022-12-14T19:27:06.785Z,39.95
2022-12-14T19:32:08.925Z,33.33
2022-12-14T19:37:11.122Z,31.27
2022-12-14T19:42:13.920Z,39.58
2022-12-14T19:47:16.166Z,40.03
2022-12-14T19:52:18.319Z,32.92
2022-12-14T19:57:20.594Z,39.13
2022-12-14T20:02:22.936Z,33.40
2022-12-14T20:07:25.100Z,45.13
2022-12-14T20:12:27.234Z,53.83
2022-12-14T20:17:29.451Z,41.20
2022-12-14T20:22:31.553Z,40.90
2022-12-14T20:27:38.839Z,49.03
2022-12-14T20:32:42.675Z,43.55
2022-12-14T20:37:47.599Z,64.35
2022-12-14T20:42:49.318Z,58.33
2022-12-14T20:47:54.277Z,62.60
2022-12-14T20:52:55.933Z,76.60
2022-12-14T20:57:58.069Z,47.47
2022-12-14T21:03:00.343Z,41.58
2022-12-14T21:13:11.444Z,39.45
2022-12-14T21:18:20.130Z,35.40
2022-12-14T21:23:22.245Z,35.80
2022-12-14T21:28:27.510Z,37.53
2022-12-14T21:33:37.991Z,36.85
2022-12-14T21:38:40.176Z,40.78
2022-12-14T21:43:42.355Z,42.85
2022-12-14T21:48:52.917Z,44.47
2022-12-14T21:53:59.293Z,37.97
2022-12-14T21:59:01.109Z,45.45
2022-12-14T22:04:03.320Z,37.42
2022-12-14T22:09:06.076Z,40.30
2022-12-14T22:14:09.668Z,42.95
2022-12-14T22:19:19.557Z,46.90
2022-12-14T22:24:25.909Z,39.60
2022-12-14T22:29:30.337Z,43.60
2022-12-14T22:34:33.938Z,40.42
2022-12-14T22:39:37.660Z,42.08
2022-12-14T22:44:41.358Z,40.65
2022-12-14T22:49:48.916Z,36.47
2022-12-14T22:54:54.404Z,37.30
2022-12-14T23:00:07.889Z,39.20
2022-12-14T23:05:13.200Z,41.45
2022-12-14T23:10:34.464Z,40.60
2022-12-14T23:15:56.009Z,45.00
2022-12-14T23:21:16.463Z,42.03
2022-12-14T23:26:38.461Z,39.75
2022-12-14T23:31:58.905Z,40.17
2022-12-14T23:37:20.680Z,39.10
2022-12-14T23:42:41.415Z,43.08
2022-12-14T23:48:01.744Z,39.03
2022-12-14T23:53:27.179Z,40.25
2022-12-14T23:58:47.501Z,40.40
